Time,TemperatureF,DewpointF,PressureIn,WindDirection,WindDirectionDegrees,WindSpeedMPH,WindSpeedGustMPH,Humidity,HourlyPrecipIn,Conditions,Clouds,dailyrainin,SoftwareType,DateUTC
2013-12-15 00:00:00,12.1,12.1,-100.00,ENE,75,3.4,8.9,100,0.00,n/a,n/a,-99.99,Henriksen +1-Wire,2013-12-15 05:00:00,
2013-12-15 00:10:00,12.2,12.2,-100.00,ENE,76,3.7,8.9,100,0.00,n/a,n/a,-99.99,Henriksen +1-Wire,2013-12-15 05:10:00,
2013-12-15 00:20:00,12.5,12.5,-100.00,East,90,3.7,6.4,100,0.00,n/a,n/a,-99.99,Henriksen +1-Wire,2013-12-15 05:20:00,
2013-12-15 00:30:00,12.6,12.6,-100.00,East,89,3.8,12.1,100,0.00,n/a,n/a,-99.99,Henriksen +1-Wire,2013-12-15 05:30:00,
2013-12-15 00:40:00,12.6,12.6,-100.00,ENE,75,4.6,8.9,100,0.00,n/a,n/a,-99.99,Henriksen +1-Wire,2013-12-15 05:40:00,
2013-12-15 00:50:00,12.6,12.6,-100.00,East,84,3.1,4.9,100,0.00,n/a,n/a,-99.99,Henriksen +1-Wire,2013-12-15 05:50:00,
2013-12-15 01:00:00,12.8,12.8,-100.00,ENE,77,4.6,8.9,100,0.00,n/a,n/a,-99.99,Henriksen +1-Wire,2013-12-15 06:00:00,
2013-12-15 01:10:00,12.7,12.7,-100.00,ENE,68,3.0,7.2,100,0.00,n/a,n/a,-99.99,Henriksen +1-Wire,2013-12-15 06:10:00,
2013-12-15 01:20:00,12.8,12.8,-100.00,ENE,69,4.8,10.3,100,0.00,n/a,n/a,-99.99,Henriksen +1-Wire,2013-12-15 06:20:00,
2013-12-15 01:30:00,12.8,12.8,-100.00,East,82,3.6,10.5,100,0.00,n/a,n/a,-99.99,Henriksen +1-Wire,2013-12-15 06:30:00,
2013-12-15 01:40:00,12.7,12.7,-100.00,ENE,76,2.6,8.8,100,0.00,n/a,n/a,-99.99,Henriksen +1-Wire,2013-12-15 06:40:00,
2013-12-15 01:50:00,12.8,12.8,-100.00,ENE,71,3.4,8.1,100,0.00,n/a,n/a,-99.99,Henriksen +1-Wire,2013-12-15 06:50:00,
2013-12-15 02:00:00,12.8,12.8,-100.00,ENE,74,4.6,8.1,100,0.00,n/a,n/a,-99.99,Henriksen +1-Wire,2013-12-15 07:00:00,
2013-12-15 02:10:00,13.0,13.0,-100.00,ENE,75,4.8,9.6,100,0.00,n/a,n/a,-99.99,Henriksen +1-Wire,2013-12-15 07:10:00,
2013-12-15 02:20:00,13.4,13.4,-100.00,East,80,4.5,9.7,100,0.00,n/a,n/a,-99.99,Henriksen +1-Wire,2013-12-15 07:20:00,
2013-12-15 02:30:00,13.3,13.3,-100.00,ENE,76,4.3,8.2,100,0.00,n/a,n/a,-99.99,Henriksen +1-Wire,2013-12-15 07:30:00,
2013-12-15 02:40:00,13.6,13.6,-100.00,ENE,70,3.7,7.3,100,0.00,n/a,n/a,-99.99,Henriksen +1-Wire,2013-12-15 07:40:00,
2013-12-15 02:50:00,13.5,13.5,-100.00,ENE,70,3.9,9.7,100,0.00,n/a,n/a,-99.99,Henriksen +1-Wire,2013-12-15 07:50:00,
2013-12-15 03:00:00,13.5,13.5,-100.00,ENE,77,3.7,8.1,100,0.00,n/a,n/a,-99.99,Henriksen +1-Wire,2013-12-15 08:00:00,
2013-12-15 03:10:00,13.6,13.5,-100.00,ENE,77,2.9,8.1,100,0.00,n/a,n/a,-99.99,Henriksen +1-Wire,2013-12-15 08:10:00,
2013-12-15 03:20:00,13.6,13.6,-100.00,ENE,78,4.7,8.9,100,0.00,n/a,n/a,-99.99,Henriksen +1-Wire,2013-12-15 08:20:00,
2013-12-15 03:30:00,13.5,13.5,-100.00,ENE,73,5.4,8.1,100,0.00,n/a,n/a,-99.99,Henriksen +1-Wire,2013-12-15 08:30:00,
2013-12-15 03:40:00,13.4,13.4,-100.00,ENE,66,3.6,8.9,100,0.00,n/a,n/a,-99.99,Henriksen +1-Wire,2013-12-15 08:40:00,
2013-12-15 03:50:00,13.4,13.4,-100.00,ENE,69,4.1,8.1,100,0.00,n/a,n/a,-99.99,Henriksen +1-Wire,2013-12-15 08:50:00,
2013-12-15 04:00:00,13.2,13.2,-100.00,East,79,3.6,9.5,100,0.00,n/a,n/a,-99.99,Henriksen +1-Wire,2013-12-15 09:00:00,
2013-12-15 04:10:00,13.4,13.4,-100.00,ENE,77,5.0,8.9,100,0.00,n/a,n/a,-99.99,Henriksen +1-Wire,2013-12-15 09:10:00,
2013-12-15 04:20:00,13.5,13.5,-100.00,ENE,76,4.3,11.3,100,0.00,n/a,n/a,-99.99,Henriksen +1-Wire,2013-12-15 09:20:00,
2013-12-15 04:30:00,13.5,13.5,-100.00,ENE,78,3.8,13.7,100,0.00,n/a,n/a,-99.99,Henriksen +1-Wire,2013-12-15 09:30:00,
2013-12-15 04:40:00,13.5,13.5,-100.00,ENE,76,5.1,12.1,100,0.00,n/a,n/a,-99.99,Henriksen +1-Wire,2013-12-15 09:40:00,
2013-12-15 04:50:00,13.5,13.5,-100.00,East,81,5.5,11.3,100,0.00,n/a,n/a,-99.99,Henriksen +1-Wire,2013-12-15 09:50:00,
2013-12-15 05:00:00,13.6,13.5,-100.00,East,83,4.5,12.8,100,0.00,n/a,n/a,-99.99,Henriksen +1-Wire,2013-12-15 10:00:00,
2013-12-15 05:10:00,13.6,13.5,-100.00,ENE,71,5.7,9.7,100,0.00,n/a,n/a,-99.99,Henriksen +1-Wire,2013-12-15 10:10:00,
2013-12-15 05:20:00,13.5,13.5,-100.00,ENE,74,3.8,9.7,100,0.00,n/a,n/a,-99.99,Henriksen +1-Wire,2013-12-15 10:20:00,
2013-12-15 05:30:00,13.5,13.5,-100.00,East,80,3.0,6.5,100,0.00,n/a,n/a,-99.99,Henriksen +1-Wire,2013-12-15 10:30:00,
2013-12-15 05:40:00,13.6,13.5,-100.00,ENE,71,3.6,10.5,100,0.00,n/a,n/a,-99.99,Henriksen +1-Wire,2013-12-15 10:40:00,
2013-12-15 05:50:00,13.7,13.7,-100.00,ENE,73,3.8,10.5,100,0.00,n/a,n/a,-99.99,Henriksen +1-Wire,2013-12-15 10:50:00,
2013-12-15 06:00:00,13.8,13.8,-100.00,ENE,77,3.2,12.1,100,0.00,n/a,n/a,-99.99,Henriksen +1-Wire,2013-12-15 11:00:00,
2013-12-15 06:10:00,13.7,13.7,-100.00,East,93,3.4,7.3,100,0.00,n/a,n/a,-99.99,Henriksen +1-Wire,2013-12-15 11:10:00,
2013-12-15 06:20:00,13.8,13.8,-100.00,East,79,3.8,8.9,100,0.00,n/a,n/a,-99.99,Henriksen +1-Wire,2013-12-15 11:20:00,
2013-12-15 06:30:00,13.8,13.8,-100.00,ENE,74,5.1,8.9,100,0.00,n/a,n/a,-99.99,Henriksen +1-Wire,2013-12-15 11:30:00,
2013-12-15 06:40:00,14.1,14.1,-100.00,ENE,67,2.7,10.4,100,0.00,n/a,n/a,-99.99,Henriksen +1-Wire,2013-12-15 11:40:00,
2013-12-15 06:50:00,14.1,14.1,-100.00,ENE,78,4.2,9.7,100,0.00,n/a,n/a,-99.99,Henriksen +1-Wire,2013-12-15 11:50:00,
2013-12-15 07:00:00,14.2,14.2,-100.00,ENE,69,4.9,9.7,100,0.00,n/a,n/a,-99.99,Henriksen +1-Wire,2013-12-15 12:00:00,
2013-12-15 07:10:00,14.8,14.8,-100.00,East,84,6.0,12.1,100,0.00,n/a,n/a,-99.99,Henriksen +1-Wire,2013-12-15 12:10:00,
2013-12-15 07:20:00,15.0,15.0,-100.00,East,86,4.0,13.0,100,0.00,n/a,n/a,-99.99,Henriksen +1-Wire,2013-12-15 12:20:00,
2013-12-15 07:30:00,15.0,15.0,-100.00,ENE,76,7.5,14.3,100,0.00,n/a,n/a,-99.99,Henriksen +1-Wire,2013-12-15 12:30:00,
2013-12-15 07:40:00,15.0,15.0,-100.00,ENE,72,4.4,10.5,100,0.00,n/a,n/a,-99.99,Henriksen +1-Wire,2013-12-15 12:40:00,
2013-12-15 07:50:00,15.1,15.1,-100.00,NE,56,0.1,6.4,100,0.00,n/a,n/a,-99.99,Henriksen +1-Wire,2013-12-15 12:50:00,
2013-12-15 08:00:00,15.1,15.1,-100.00,ENE,71,6.7,10.5,100,0.00,n/a,n/a,-99.99,Henriksen +1-Wire,2013-12-15 13:00:00,
2013-12-15 08:10:00,15.1,15.1,-100.00,ENE,76,7.6,16.9,100,0.00,n/a,n/a,-99.99,Henriksen +1-Wire,2013-12-15 13:10:00,
2013-12-15 08:20:00,15.2,15.2,-100.00,ENE,78,6.4,10.5,100,0.00,n/a,n/a,-99.99,Henriksen +1-Wire,2013-12-15 13:20:00,
2013-12-15 08:30:00,15.1,15.1,-100.00,ENE,72,5.5,12.1,100,0.00,n/a,n/a,-99.99,Henriksen +1-Wire,2013-12-15 13:30:00,
2013-12-15 08:40:00,15.3,15.3,-100.00,ENE,70,4.4,11.4,100,0.00,n/a,n/a,-99.99,Henriksen +1-Wire,2013-12-15 13:40:00,
2013-12-15 08:50:00,15.4,15.4,-100.00,ENE,74,3.7,8.1,100,0.00,n/a,n/a,-99.99,Henriksen +1-Wire,2013-12-15 13:50:00,
2013-12-15 09:00:00,15.7,15.7,-100.00,ENE,61,3.3,8.9,100,0.00,n/a,n/a,-99.99,Henriksen +1-Wire,2013-12-15 14:00:00,
2013-12-15 09:10:00,15.7,15.7,-100.00,ENE,74,4.6,12.1,100,0.00,n/a,n/a,-99.99,Henriksen +1-Wire,2013-12-15 14:10:00,
2013-12-15 09:20:00,15.5,15.5,-100.00,ENE,64,3.9,12.2,100,0.00,n/a,n/a,-99.99,Henriksen +1-Wire,2013-12-15 14:20:00,
2013-12-15 09:30:00,15.4,15.4,-100.00,ENE,72,4.6,12.1,100,0.00,n/a,n/a,-99.99,Henriksen +1-Wire,2013-12-15 14:30:00,
2013-12-15 09:40:00,15.7,15.7,-100.00,ENE,57,5.1,10.5,100,0.00,n/a,n/a,-99.99,Henriksen +1-Wire,2013-12-15 14:40:00,
2013-12-15 09:50:00,16.1,16.1,-100.00,NE,53,2.6,7.2,100,0.00,n/a,n/a,-99.99,Henriksen +1-Wire,2013-12-15 14:50:00,
2013-12-15 10:00:00,16.4,16.4,-100.00,NW,324,2.5,6.4,100,0.00,n/a,n/a,-99.99,Henriksen +1-Wire,2013-12-15 15:00:00,
2013-12-15 10:10:00,16.7,16.7,-100.00,North,350,2.7,5.7,100,0.00,n/a,n/a,-99.99,Henriksen +1-Wire,2013-12-15 15:10:00,
2013-12-15 10:20:00,16.8,16.8,-100.00,NE,52,1.8,10.5,100,0.00,n/a,n/a,-99.99,Henriksen +1-Wire,2013-12-15 15:20:00,
2013-12-15 10:30:00,17.3,17.3,-100.00,NNW,342,2.6,8.1,100,0.00,n/a,n/a,-99.99,Henriksen +1-Wire,2013-12-15 15:30:00,
2013-12-15 10:40:00,17.4,17.4,-100.00,NW,318,1.8,8.1,100,0.00,n/a,n/a,-99.99,Henriksen +1-Wire,2013-12-15 15:40:00,
2013-12-15 10:50:00,17.9,17.9,-100.00,ENE,62,3.4,7.3,100,0.00,n/a,n/a,-99.99,Henriksen +1-Wire,2013-12-15 15:50:00,
2013-12-15 11:00:00,18.7,18.7,-100.00,North,3,2.5,8.1,100,0.00,n/a,n/a,-99.99,Henriksen +1-Wire,2013-12-15 16:00:00,
2013-12-15 11:10:00,19.0,19.0,-100.00,NNE,29,2.4,7.2,100,0.00,n/a,n/a,-99.99,Henriksen +1-Wire,2013-12-15 16:10:00,
2013-12-15 11:20:00,19.2,19.2,-100.00,NNE,22,1.8,5.6,100,0.00,n/a,n/a,-99.99,Henriksen +1-Wire,2013-12-15 16:20:00,
2013-12-15 11:30:00,19.5,19.5,-100.00,NE,55,3.1,8.1,100,0.00,n/a,n/a,-99.99,Henriksen +1-Wire,2013-12-15 16:30:00,
2013-12-15 11:40:00,19.7,19.7,-100.00,ENE,76,3.1,8.1,100,0.00,n/a,n/a,-99.99,Henriksen +1-Wire,2013-12-15 16:40:00,
2013-12-15 11:50:00,20.4,20.4,-100.00,NE,35,1.2,4.8,100,0.00,n/a,n/a,-99.99,Henriksen +1-Wire,2013-12-15 16:50:00,
2013-12-15 12:00:00,20.8,20.8,-100.00,North,1,1.7,6.5,100,0.00,n/a,n/a,-99.99,Henriksen +1-Wire,2013-12-15 17:00:00,
2013-12-15 12:10:00,21.0,21.0,-100.00,North,9,1.7,6.5,100,0.00,n/a,n/a,-99.99,Henriksen +1-Wire,2013-12-15 17:10:00,
2013-12-15 12:20:00,21.4,21.4,-100.00,NNW,336,2.3,5.7,100,0.00,n/a,n/a,-99.99,Henriksen +1-Wire,2013-12-15 17:20:00,
2013-12-15 12:30:00,21.9,21.9,-100.00,NNW,337,2.0,4.0,100,0.00,n/a,n/a,-99.99,Henriksen +1-Wire,2013-12-15 17:30:00,
2013-12-15 12:40:00,22.4,22.4,-100.00,NW,314,0.0,1.6,100,0.00,n/a,n/a,-99.99,Henriksen +1-Wire,2013-12-15 17:40:00,
2013-12-15 12:50:00,23.0,23.0,-100.00,WNW,292,1.6,4.1,100,0.00,n/a,n/a,-99.99,Henriksen +1-Wire,2013-12-15 17:50:00,
2013-12-15 13:00:00,23.2,23.1,-100.00,WNW,283,0.5,8.1,99,0.00,n/a,n/a,-99.99,Henriksen +1-Wire,2013-12-15 18:00:00,
2013-12-15 13:10:00,23.3,23.1,-100.00,NW,304,1.6,4.0,99,0.00,n/a,n/a,-99.99,Henriksen +1-Wire,2013-12-15 18:10:00,
2013-12-15 13:20:00,23.3,23.1,-100.00,WNW,289,1.9,4.1,99,0.00,n/a,n/a,-99.99,Henriksen +1-Wire,2013-12-15 18:20:00,
2013-12-15 13:30:00,23.5,23.2,-100.00,NW,307,0.7,6.4,98,0.00,n/a,n/a,-99.99,Henriksen +1-Wire,2013-12-15 18:30:00,
2013-12-15 13:40:00,24.2,23.8,-100.00,NNE,26,0.0,2.4,98,0.00,n/a,n/a,-99.99,Henriksen +1-Wire,2013-12-15 18:40:00,
2013-12-15 13:50:00,24.7,24.2,-100.00,West,266,1.5,3.2,97,0.00,n/a,n/a,-99.99,Henriksen +1-Wire,2013-12-15 18:50:00,
2013-12-15 14:00:00,25.0,24.4,-100.00,NW,314,0.0,2.6,97,0.00,n/a,n/a,-99.99,Henriksen +1-Wire,2013-12-15 19:00:00,
2013-12-15 14:10:00,24.9,24.4,-100.00,ENE,71,0.0,0.0,97,0.00,n/a,n/a,-99.99,Henriksen +1-Wire,2013-12-15 19:10:00,
2013-12-15 14:20:00,25.2,24.7,-100.00,NE,44,0.0,0.0,98,0.00,n/a,n/a,-99.99,Henriksen +1-Wire,2013-12-15 19:20:00,
2013-12-15 14:30:00,25.4,24.8,-100.00,SW,234,0.0,0.0,97,0.00,n/a,n/a,-99.99,Henriksen +1-Wire,2013-12-15 19:30:00,
2013-12-15 14:40:00,25.8,25.4,-100.00,NNW,336,0.0,0.0,98,0.00,n/a,n/a,-99.99,Henriksen +1-Wire,2013-12-15 19:40:00,
2013-12-15 14:50:00,26.1,25.8,-100.00,WNW,293,0.0,0.2,98,0.00,n/a,n/a,-99.99,Henriksen +1-Wire,2013-12-15 19:50:00,
2013-12-15 15:00:00,26.3,26.0,-100.00,WSW,246,0.0,0.0,98,0.00,n/a,n/a,-99.99,Henriksen +1-Wire,2013-12-15 20:00:00,
2013-12-15 15:10:00,26.3,26.1,-100.00,WSW,246,0.0,0.0,99,0.00,n/a,n/a,-99.99,Henriksen +1-Wire,2013-12-15 20:10:00,
2013-12-15 15:20:00,25.9,25.8,-100.00,WSW,246,0.0,0.0,99,0.00,n/a,n/a,-99.99,Henriksen +1-Wire,2013-12-15 20:20:00,
2013-12-15 15:30:00,25.6,25.6,-100.00,WSW,246,0.0,0.0,99,0.00,n/a,n/a,-99.99,Henriksen +1-Wire,2013-12-15 20:30:00,
2013-12-15 15:40:00,25.6,25.6,-100.00,WSW,246,0.0,0.0,100,0.00,n/a,n/a,-99.99,Henriksen +1-Wire,2013-12-15 20:40:00,
2013-12-15 15:50:00,25.9,25.9,-100.00,WSW,253,0.0,0.0,100,0.00,n/a,n/a,-99.99,Henriksen +1-Wire,2013-12-15 20:50:00,
2013-12-15 16:00:00,25.9,25.9,-100.00,West,269,0.0,0.0,100,0.00,n/a,n/a,-99.99,Henriksen +1-Wire,2013-12-15 21:00:00,
2013-12-15 16:10:00,25.7,25.7,-100.00,West,269,0.0,0.0,100,0.00,n/a,n/a,-99.99,Henriksen +1-Wire,2013-12-15 21:10:00,
2013-12-15 16:20:00,25.8,25.8,-100.00,West,269,0.0,0.0,100,0.00,n/a,n/a,-99.99,Henriksen +1-Wire,2013-12-15 21:20:00,
2013-12-15 16:30:00,25.9,25.9,-100.00,West,269,0.0,0.0,100,0.00,n/a,n/a,-99.99,Henriksen +1-Wire,2013-12-15 21:30:00,
2013-12-15 16:40:00,26.0,26.0,-100.00,West,274,2.1,7.2,100,0.00,n/a,n/a,-99.99,Henriksen +1-Wire,2013-12-15 21:40:00,
2013-12-15 16:50:00,26.0,26.0,-100.00,NW,308,1.8,5.0,99,0.00,n/a,n/a,-99.99,Henriksen +1-Wire,2013-12-15 21:50:00,
2013-12-15 17:00:00,26.1,26.1,-100.00,WNW,292,0.3,4.8,99,0.00,n/a,n/a,-99.99,Henriksen +1-Wire,2013-12-15 22:00:00,
2013-12-15 17:10:00,26.1,26.0,-100.00,West,261,1.2,3.5,99,0.00,n/a,n/a,-99.99,Henriksen +1-Wire,2013-12-15 22:10:00,
2013-12-15 17:20:00,25.8,25.7,-100.00,WNW,291,0.0,0.0,99,0.00,n/a,n/a,-99.99,Henriksen +1-Wire,2013-12-15 22:20:00,
2013-12-15 17:30:00,25.3,25.3,-100.00,WNW,291,0.0,0.0,100,0.00,n/a,n/a,-99.99,Henriksen +1-Wire,2013-12-15 22:30:00,
2013-12-15 17:40:00,24.8,24.8,-100.00,WNW,294,0.0,4.0,100,0.00,n/a,n/a,-99.99,Henriksen +1-Wire,2013-12-15 22:40:00,
2013-12-15 17:50:00,24.6,24.6,-100.00,WNW,299,0.0,3.2,100,0.00,n/a,n/a,-99.99,Henriksen +1-Wire,2013-12-15 22:50:00,
2013-12-15 18:00:00,23.7,23.7,-100.00,WSW,239,0.0,1.6,99,0.00,n/a,n/a,-99.99,Henriksen +1-Wire,2013-12-15 23:00:00,
2013-12-15 18:10:00,23.0,23.0,-100.00,West,263,0.0,0.0,100,0.00,n/a,n/a,-99.99,Henriksen +1-Wire,2013-12-15 23:10:00,
2013-12-15 18:20:00,22.5,22.5,-100.00,West,269,0.0,0.0,100,0.00,n/a,n/a,-99.99,Henriksen +1-Wire,2013-12-15 23:20:00,
2013-12-15 18:30:00,21.7,21.7,-100.00,SW,225,0.0,0.0,100,0.00,n/a,n/a,-99.99,Henriksen +1-Wire,2013-12-15 23:30:00,
2013-12-15 18:40:00,21.4,21.4,-100.00,SW,224,0.0,0.0,100,0.00,n/a,n/a,-99.99,Henriksen +1-Wire,2013-12-15 23:40:00,
2013-12-15 18:50:00,20.7,20.7,-100.00,SW,224,0.0,0.0,100,0.00,n/a,n/a,-99.99,Henriksen +1-Wire,2013-12-15 23:50:00,
2013-12-15 19:00:00,20.5,20.5,-100.00,SW,224,0.0,0.0,100,0.00,n/a,n/a,-99.99,Henriksen +1-Wire,2013-12-16 00:00:00,
2013-12-15 19:10:00,20.1,20.1,-100.00,SW,226,0.0,0.0,100,0.00,n/a,n/a,-99.99,Henriksen +1-Wire,2013-12-16 00:10:00,
2013-12-15 19:20:00,20.6,20.6,-100.00,WSW,246,0.0,0.0,100,0.00,n/a,n/a,-99.99,Henriksen +1-Wire,2013-12-16 00:20:00,
2013-12-15 19:30:00,19.9,19.8,-100.00,WSW,246,0.0,0.0,100,0.00,n/a,n/a,-99.99,Henriksen +1-Wire,2013-12-16 00:30:00,
2013-12-15 19:40:00,19.3,19.3,-100.00,WSW,251,0.0,0.0,100,0.00,n/a,n/a,-99.99,Henriksen +1-Wire,2013-12-16 00:40:00,
2013-12-15 19:50:00,19.4,19.4,-100.00,West,269,0.0,0.0,100,0.00,n/a,n/a,-99.99,Henriksen +1-Wire,2013-12-16 00:50:00,
2013-12-15 20:00:00,19.2,19.2,-100.00,West,270,0.0,0.0,100,0.00,n/a,n/a,-99.99,Henriksen +1-Wire,2013-12-16 01:00:00,
2013-12-15 20:10:00,18.9,18.9,-100.00,West,273,0.4,4.0,100,0.00,n/a,n/a,-99.99,Henriksen +1-Wire,2013-12-16 01:10:00,
2013-12-15 20:20:00,19.4,19.4,-100.00,WNW,287,0.5,4.9,100,0.00,n/a,n/a,-99.99,Henriksen +1-Wire,2013-12-16 01:20:00,
2013-12-15 20:30:00,19.8,19.8,-100.00,West,261,2.5,4.9,100,0.00,n/a,n/a,-99.99,Henriksen +1-Wire,2013-12-16 01:30:00,
2013-12-15 20:40:00,21.1,21.1,-100.00,WNW,283,0.0,3.2,100,0.00,n/a,n/a,-99.99,Henriksen +1-Wire,2013-12-16 01:40:00,
2013-12-15 20:50:00,20.3,20.3,-100.00,West,275,2.0,4.0,99,0.00,n/a,n/a,-99.99,Henriksen +1-Wire,2013-12-16 01:50:00,
2013-12-15 21:00:00,21.6,21.6,-100.00,WNW,293,1.5,4.8,100,0.00,n/a,n/a,-99.99,Henriksen +1-Wire,2013-12-16 02:00:00,
2013-12-15 21:10:00,20.8,20.8,-100.00,West,280,0.0,3.2,99,0.00,n/a,n/a,-99.99,Henriksen +1-Wire,2013-12-16 02:10:00,
2013-12-15 21:20:00,19.6,19.5,-100.00,West,270,0.0,0.0,99,0.00,n/a,n/a,-99.99,Henriksen +1-Wire,2013-12-16 02:20:00,
2013-12-15 21:30:00,19.2,19.2,-100.00,West,268,0.0,0.0,99,0.00,n/a,n/a,-99.99,Henriksen +1-Wire,2013-12-16 02:30:00,
2013-12-15 21:40:00,19.0,18.9,-100.00,WSW,253,0.0,3.2,100,0.00,n/a,n/a,-99.99,Henriksen +1-Wire,2013-12-16 02:40:00,
2013-12-15 21:50:00,19.1,19.1,-100.00,WSW,246,0.0,0.0,100,0.00,n/a,n/a,-99.99,Henriksen +1-Wire,2013-12-16 02:50:00,
2013-12-15 22:00:00,19.3,19.3,-100.00,SW,230,0.0,0.0,100,0.00,n/a,n/a,-99.99,Henriksen +1-Wire,2013-12-16 03:00:00,
2013-12-15 22:10:00,18.3,18.3,-100.00,SW,229,0.0,0.0,100,0.00,n/a,n/a,-99.99,Henriksen +1-Wire,2013-12-16 03:10:00,
2013-12-15 22:20:00,18.1,18.1,-100.00,WSW,246,0.0,4.0,100,0.00,n/a,n/a,-99.99,Henriksen +1-Wire,2013-12-16 03:20:00,
2013-12-15 22:30:00,18.0,18.0,-100.00,WSW,246,0.0,0.0,100,0.00,n/a,n/a,-99.99,Henriksen +1-Wire,2013-12-16 03:30:00,
2013-12-15 22:40:00,17.6,17.6,-100.00,WSW,246,0.0,0.0,100,0.00,n/a,n/a,-99.99,Henriksen +1-Wire,2013-12-16 03:40:00,
2013-12-15 22:50:00,17.1,17.1,-100.00,WSW,246,0.0,0.0,100,0.00,n/a,n/a,-99.99,Henriksen +1-Wire,2013-12-16 03:50:00,
2013-12-15 23:00:00,16.7,7.2,-100.00,WSW,246,0.0,0.0,65,0.00,n/a,n/a,-99.99,Henriksen +1-Wire,2013-12-16 04:00:00,
2013-12-15 23:10:00,16.6,11.8,-100.00,WSW,246,0.0,0.0,81,0.00,n/a,n/a,-99.99,Henriksen +1-Wire,2013-12-16 04:10:00,
2013-12-15 23:20:00,16.4,14.9,-100.00,WSW,246,0.0,0.0,93,0.00,n/a,n/a,-99.99,Henriksen +1-Wire,2013-12-16 04:20:00,
2013-12-15 23:30:00,16.3,15.7,-100.00,WSW,246,0.0,0.0,97,0.00,n/a,n/a,-99.99,Henriksen +1-Wire,2013-12-16 04:30:00,
2013-12-15 23:40:00,15.9,15.7,-100.00,WSW,246,0.0,0.0,99,0.00,n/a,n/a,-99.99,Henriksen +1-Wire,2013-12-16 04:40:00,
2013-12-15 23:50:00,15.7,15.7,-100.00,WSW,246,0.0,0.0,99,0.00,n/a,n/a,-99.99,Henriksen +1-Wire,2013-12-16 04:50:00,